sensor_id;sensor_type;location;lat;lon;timestamp;P1;durP1;ratioP1;P2;durP2;ratioP2
51883;SDS011;37915;53.254;6.598;2022-11-21T00:01:31;19.13;;;10.82;;
51883;SDS011;37915;53.254;6.598;2022-11-21T00:03:57;18.77;;;11.10;;
51883;SDS011;37915;53.254;6.598;2022-11-21T00:06:23;20.92;;;11.48;;
51883;SDS011;37915;53.254;6.598;2022-11-21T00:08:49;18.77;;;11.02;;
51883;SDS011;37915;53.254;6.598;2022-11-21T00:11:15;17.15;;;10.63;;
51883;SDS011;37915;53.254;6.598;2022-11-21T00:13:41;18.83;;;10.25;;
51883;SDS011;37915;53.254;6.598;2022-11-21T00:16:08;22.10;;;11.02;;
51883;SDS011;37915;53.254;6.598;2022-11-21T00:18:35;19.70;;;11.52;;
51883;SDS011;37915;53.254;6.598;2022-11-21T00:21:19;18.60;;;11.15;;
51883;SDS011;37915;53.254;6.598;2022-11-21T00:23:45;19.73;;;10.52;;
51883;SDS011;37915;53.254;6.598;2022-11-21T00:26:12;17.05;;;10.55;;
51883;SDS011;37915;53.254;6.598;2022-11-21T00:28:38;20.17;;;11.57;;
51883;SDS011;37915;53.254;6.598;2022-11-21T00:31:05;22.15;;;12.30;;
51883;SDS011;37915;53.254;6.598;2022-11-21T00:33:31;19.50;;;12.10;;
51883;SDS011;37915;53.254;6.598;2022-11-21T00:36:04;23.92;;;12.73;;
51883;SDS011;37915;53.254;6.598;2022-11-21T00:38:33;18.27;;;11.50;;
51883;SDS011;37915;53.254;6.598;2022-11-21T00:40:59;19.50;;;11.32;;
51883;SDS011;37915;53.254;6.598;2022-11-21T00:43:25;18.08;;;10.63;;
51883;SDS011;37915;53.254;6.598;2022-11-21T00:45:50;17.70;;;10.88;;
51883;SDS011;37915;53.254;6.598;2022-11-21T00:48:16;19.58;;;10.95;;
51883;SDS011;37915;53.254;6.598;2022-11-21T00:50:42;17.40;;;10.57;;
51883;SDS011;37915;53.254;6.598;2022-11-21T00:53:07;20.55;;;11.93;;
51883;SDS011;37915;53.254;6.598;2022-11-21T00:55:33;18.83;;;10.98;;
51883;SDS011;37915;53.254;6.598;2022-11-21T00:58:01;18.92;;;11.18;;
51883;SDS011;37915;53.254;6.598;2022-11-21T01:00:27;18.70;;;10.63;;
51883;SDS011;37915;53.254;6.598;2022-11-21T01:02:52;18.15;;;10.77;;
51883;SDS011;37915;53.254;6.598;2022-11-21T01:05:18;19.63;;;12.10;;
51883;SDS011;37915;53.254;6.598;2022-11-21T01:07:44;19.77;;;12.35;;
51883;SDS011;37915;53.254;6.598;2022-11-21T01:10:11;19.42;;;11.52;;
51883;SDS011;37915;53.254;6.598;2022-11-21T01:12:37;17.88;;;11.30;;
51883;SDS011;37915;53.254;6.598;2022-11-21T01:15:03;18.08;;;11.73;;
51883;SDS011;37915;53.254;6.598;2022-11-21T01:17:31;17.10;;;11.07;;
51883;SDS011;37915;53.254;6.598;2022-11-21T01:19:57;17.65;;;10.52;;
51883;SDS011;37915;53.254;6.598;2022-11-21T01:22:23;23.42;;;12.02;;
51883;SDS011;37915;53.254;6.598;2022-11-21T01:24:48;17.55;;;10.80;;
51883;SDS011;37915;53.254;6.598;2022-11-21T01:27:14;20.48;;;11.52;;
51883;SDS011;37915;53.254;6.598;2022-11-21T01:29:40;19.38;;;11.38;;
51883;SDS011;37915;53.254;6.598;2022-11-21T01:32:05;23.92;;;11.63;;
51883;SDS011;37915;53.254;6.598;2022-11-21T01:34:31;19.48;;;11.50;;
51883;SDS011;37915;53.254;6.598;2022-11-21T01:36:56;17.52;;;10.48;;
51883;SDS011;37915;53.254;6.598;2022-11-21T01:39:22;17.42;;;10.05;;
51883;SDS011;37915;53.254;6.598;2022-11-21T01:41:48;17.92;;;11.10;;
51883;SDS011;37915;53.254;6.598;2022-11-21T01:44:21;19.52;;;11.93;;
51883;SDS011;37915;53.254;6.598;2022-11-21T01:46:47;20.50;;;11.57;;
51883;SDS011;37915;53.254;6.598;2022-11-21T01:51:48;20.02;;;11.10;;
51883;SDS011;37915;53.254;6.598;2022-11-21T01:56:50;21.58;;;11.60;;
51883;SDS011;37915;53.254;6.598;2022-11-21T01:59:43;19.70;;;10.57;;
51883;SDS011;37915;53.254;6.598;2022-11-21T02:02:16;21.02;;;11.75;;
51883;SDS011;37915;53.254;6.598;2022-11-21T02:04:45;18.15;;;11.80;;
51883;SDS011;37915;53.254;6.598;2022-11-21T02:07:12;19.65;;;11.40;;
51883;SDS011;37915;53.254;6.598;2022-11-21T02:09:40;16.83;;;10.48;;
51883;SDS011;37915;53.254;6.598;2022-11-21T02:12:10;21.27;;;12.73;;
51883;SDS011;37915;53.254;6.598;2022-11-21T02:14:41;19.80;;;11.75;;
51883;SDS011;37915;53.254;6.598;2022-11-21T02:17:08;20.20;;;11.32;;
51883;SDS011;37915;53.254;6.598;2022-11-21T02:19:49;24.42;;;12.45;;
51883;SDS011;37915;53.254;6.598;2022-11-21T02:25:28;20.80;;;11.40;;
51883;SDS011;37915;53.254;6.598;2022-11-21T02:27:57;20.25;;;12.18;;
51883;SDS011;37915;53.254;6.598;2022-11-21T02:30:26;18.42;;;11.50;;
51883;SDS011;37915;53.254;6.598;2022-11-21T02:32:54;20.88;;;11.50;;
51883;SDS011;37915;53.254;6.598;2022-11-21T02:35:20;21.98;;;12.20;;
51883;SDS011;37915;53.254;6.598;2022-11-21T02:37:47;21.15;;;11.93;;
51883;SDS011;37915;53.254;6.598;2022-11-21T02:40:22;20.00;;;11.85;;
51883;SDS011;37915;53.254;6.598;2022-11-21T02:43:01;22.83;;;12.80;;
51883;SDS011;37915;53.254;6.598;2022-11-21T02:45:29;22.23;;;11.90;;
51883;SDS011;37915;53.254;6.598;2022-11-21T02:47:58;17.05;;;10.77;;
51883;SDS011;37915;53.254;6.598;2022-11-21T02:50:25;22.50;;;12.63;;
51883;SDS011;37915;53.254;6.598;2022-11-21T02:52:53;20.35;;;11.93;;
51883;SDS011;37915;53.254;6.598;2022-11-21T02:55:22;22.55;;;12.35;;
51883;SDS011;37915;53.254;6.598;2022-11-21T02:57:49;21.05;;;12.57;;
51883;SDS011;37915;53.254;6.598;2022-11-21T03:00:15;22.10;;;11.98;;
51883;SDS011;37915;53.254;6.598;2022-11-21T03:02:41;24.85;;;13.13;;
51883;SDS011;37915;53.254;6.598;2022-11-21T03:05:07;19.27;;;10.93;;
51883;SDS011;37915;53.254;6.598;2022-11-21T03:07:36;23.80;;;12.32;;
51883;SDS011;37915;53.254;6.598;2022-11-21T03:10:02;23.10;;;12.45;;
51883;SDS011;37915;53.254;6.598;2022-11-21T03:12:29;22.08;;;12.50;;
51883;SDS011;37915;53.254;6.598;2022-11-21T03:14:54;21.65;;;12.15;;
51883;SDS011;37915;53.254;6.598;2022-11-21T03:17:20;20.17;;;12.23;;
51883;SDS011;37915;53.254;6.598;2022-11-21T03:19:46;23.20;;;12.60;;
51883;SDS011;37915;53.254;6.598;2022-11-21T03:22:12;20.58;;;12.82;;
51883;SDS011;37915;53.254;6.598;2022-11-21T03:24:38;25.80;;;12.95;;
51883;SDS011;37915;53.254;6.598;2022-11-21T03:27:04;24.13;;;13.38;;
51883;SDS011;37915;53.254;6.598;2022-11-21T03:29:30;24.83;;;14.25;;
51883;SDS011;37915;53.254;6.598;2022-11-21T03:31:55;24.42;;;13.98;;
51883;SDS011;37915;53.254;6.598;2022-11-21T03:34:21;21.75;;;12.23;;
51883;SDS011;37915;53.254;6.598;2022-11-21T03:36:47;21.65;;;12.73;;
51883;SDS011;37915;53.254;6.598;2022-11-21T03:39:12;25.83;;;14.38;;
51883;SDS011;37915;53.254;6.598;2022-11-21T03:41:38;23.17;;;13.40;;
51883;SDS011;37915;53.254;6.598;2022-11-21T03:44:04;24.35;;;13.73;;
51883;SDS011;37915;53.254;6.598;2022-11-21T03:46:33;24.77;;;13.15;;
51883;SDS011;37915;53.254;6.598;2022-11-21T03:49:00;22.33;;;13.70;;
51883;SDS011;37915;53.254;6.598;2022-11-21T03:51:26;28.00;;;16.08;;
51883;SDS011;37915;53.254;6.598;2022-11-21T03:53:52;25.02;;;14.32;;
51883;SDS011;37915;53.254;6.598;2022-11-21T03:56:19;25.85;;;13.38;;
51883;SDS011;37915;53.254;6.598;2022-11-21T03:58:45;28.10;;;14.23;;
51883;SDS011;37915;53.254;6.598;2022-11-21T04:01:11;25.58;;;15.45;;
51883;SDS011;37915;53.254;6.598;2022-11-21T04:03:40;24.10;;;13.38;;
51883;SDS011;37915;53.254;6.598;2022-11-21T04:06:06;28.23;;;14.82;;
51883;SDS011;37915;53.254;6.598;2022-11-21T04:08:33;29.77;;;15.63;;
51883;SDS011;37915;53.254;6.598;2022-11-21T04:10:59;27.58;;;15.77;;
51883;SDS011;37915;53.254;6.598;2022-11-21T04:13:25;27.70;;;15.70;;
51883;SDS011;37915;53.254;6.598;2022-11-21T04:15:50;28.58;;;15.20;;
51883;SDS011;37915;53.254;6.598;2022-11-21T04:18:16;25.92;;;14.70;;
51883;SDS011;37915;53.254;6.598;2022-11-21T04:20:42;29.38;;;15.10;;
51883;SDS011;37915;53.254;6.598;2022-11-21T04:23:08;24.35;;;14.27;;
51883;SDS011;37915;53.254;6.598;2022-11-21T04:25:33;26.98;;;14.73;;
51883;SDS011;37915;53.254;6.598;2022-11-21T04:28:00;24.88;;;13.93;;
51883;SDS011;37915;53.254;6.598;2022-11-21T04:30:27;24.65;;;14.70;;
51883;SDS011;37915;53.254;6.598;2022-11-21T04:32:53;27.55;;;15.50;;
51883;SDS011;37915;53.254;6.598;2022-11-21T04:35:19;25.30;;;15.63;;
51883;SDS011;37915;53.254;6.598;2022-11-21T04:37:46;23.35;;;13.82;;
51883;SDS011;37915;53.254;6.598;2022-11-21T04:40:12;25.50;;;14.23;;
51883;SDS011;37915;53.254;6.598;2022-11-21T04:42:46;23.17;;;12.77;;
51883;SDS011;37915;53.254;6.598;2022-11-21T04:45:12;20.50;;;14.02;;
51883;SDS011;37915;53.254;6.598;2022-11-21T04:47:40;27.25;;;12.95;;
51883;SDS011;37915;53.254;6.598;2022-11-21T04:50:07;26.90;;;12.68;;
51883;SDS011;37915;53.254;6.598;2022-11-21T04:52:34;22.00;;;12.40;;
51883;SDS011;37915;53.254;6.598;2022-11-21T04:55:00;25.75;;;13.85;;
51883;SDS011;37915;53.254;6.598;2022-11-21T04:57:27;22.98;;;12.75;;
51883;SDS011;37915;53.254;6.598;2022-11-21T04:59:53;19.58;;;12.00;;
51883;SDS011;37915;53.254;6.598;2022-11-21T05:02:20;21.05;;;12.85;;
51883;SDS011;37915;53.254;6.598;2022-11-21T05:04:46;20.05;;;11.73;;
51883;SDS011;37915;53.254;6.598;2022-11-21T05:07:11;20.20;;;11.85;;
51883;SDS011;37915;53.254;6.598;2022-11-21T05:09:38;22.02;;;12.75;;
51883;SDS011;37915;53.254;6.598;2022-11-21T05:12:03;24.60;;;12.15;;
51883;SDS011;37915;53.254;6.598;2022-11-21T05:14:48;23.95;;;12.77;;
51883;SDS011;37915;53.254;6.598;2022-11-21T05:17:14;20.73;;;11.40;;
51883;SDS011;37915;53.254;6.598;2022-11-21T05:19:39;21.15;;;12.00;;
51883;SDS011;37915;53.254;6.598;2022-11-21T05:22:05;21.13;;;12.00;;
51883;SDS011;37915;53.254;6.598;2022-11-21T05:24:31;21.95;;;12.05;;
51883;SDS011;37915;53.254;6.598;2022-11-21T05:26:56;19.27;;;11.43;;
51883;SDS011;37915;53.254;6.598;2022-11-21T05:29:22;20.13;;;11.48;;
51883;SDS011;37915;53.254;6.598;2022-11-21T05:31:48;21.58;;;12.48;;
51883;SDS011;37915;53.254;6.598;2022-11-21T05:34:13;23.05;;;11.70;;
51883;SDS011;37915;53.254;6.598;2022-11-21T05:36:39;19.95;;;11.32;;
51883;SDS011;37915;53.254;6.598;2022-11-21T05:39:05;21.02;;;11.68;;
51883;SDS011;37915;53.254;6.598;2022-11-21T05:41:31;19.05;;;10.80;;
51883;SDS011;37915;53.254;6.598;2022-11-21T05:43:56;21.42;;;12.00;;
51883;SDS011;37915;53.254;6.598;2022-11-21T05:46:23;19.58;;;11.32;;
51883;SDS011;37915;53.254;6.598;2022-11-21T05:48:50;22.73;;;12.18;;
51883;SDS011;37915;53.254;6.598;2022-11-21T05:51:17;19.25;;;11.85;;
51883;SDS011;37915;53.254;6.598;2022-11-21T05:53:44;21.98;;;11.75;;
51883;SDS011;37915;53.254;6.598;2022-11-21T05:56:11;19.63;;;11.43;;
51883;SDS011;37915;53.254;6.598;2022-11-21T05:58:38;22.40;;;12.93;;
51883;SDS011;37915;53.254;6.598;2022-11-21T06:01:05;20.13;;;12.13;;
51883;SDS011;37915;53.254;6.598;2022-11-21T06:03:35;19.35;;;12.18;;
51883;SDS011;37915;53.254;6.598;2022-11-21T06:06:07;22.02;;;12.05;;
51883;SDS011;37915;53.254;6.598;2022-11-21T06:08:35;22.20;;;11.52;;
51883;SDS011;37915;53.254;6.598;2022-11-21T06:11:02;23.13;;;12.48;;
51883;SDS011;37915;53.254;6.598;2022-11-21T06:13:30;21.88;;;12.02;;
51883;SDS011;37915;53.254;6.598;2022-11-21T06:16:10;21.10;;;11.77;;
51883;SDS011;37915;53.254;6.598;2022-11-21T06:18:38;19.08;;;11.82;;
51883;SDS011;37915;53.254;6.598;2022-11-21T06:21:13;24.80;;;12.02;;
51883;SDS011;37915;53.254;6.598;2022-11-21T06:23:40;22.65;;;12.52;;
51883;SDS011;37915;53.254;6.598;2022-11-21T06:26:07;22.00;;;12.13;;
51883;SDS011;37915;53.254;6.598;2022-11-21T06:28:39;22.48;;;12.15;;
51883;SDS011;37915;53.254;6.598;2022-11-21T06:31:07;21.52;;;11.85;;
51883;SDS011;37915;53.254;6.598;2022-11-21T06:33:34;23.20;;;12.10;;
51883;SDS011;37915;53.254;6.598;2022-11-21T06:36:03;18.95;;;11.82;;
51883;SDS011;37915;53.254;6.598;2022-11-21T06:38:33;19.73;;;11.32;;
51883;SDS011;37915;53.254;6.598;2022-11-21T06:41:06;24.85;;;12.70;;
51883;SDS011;37915;53.254;6.598;2022-11-21T06:43:39;19.70;;;12.05;;
51883;SDS011;37915;53.254;6.598;2022-11-21T06:46:06;22.52;;;13.15;;
51883;SDS011;37915;53.254;6.598;2022-11-21T06:48:32;25.77;;;13.88;;
51883;SDS011;37915;53.254;6.598;2022-11-21T06:51:21;23.85;;;14.48;;
51883;SDS011;37915;53.254;6.598;2022-11-21T06:53:56;24.08;;;13.85;;
51883;SDS011;37915;53.254;6.598;2022-11-21T06:56:23;24.25;;;14.00;;
51883;SDS011;37915;53.254;6.598;2022-11-21T06:58:50;24.42;;;14.00;;
51883;SDS011;37915;53.254;6.598;2022-11-21T07:01:16;24.50;;;13.80;;
51883;SDS011;37915;53.254;6.598;2022-11-21T07:03:42;30.75;;;15.43;;
51883;SDS011;37915;53.254;6.598;2022-11-21T07:06:09;25.75;;;13.80;;
51883;SDS011;37915;53.254;6.598;2022-11-21T07:08:35;26.63;;;14.57;;
51883;SDS011;37915;53.254;6.598;2022-11-21T07:11:02;23.27;;;13.80;;
51883;SDS011;37915;53.254;6.598;2022-11-21T07:13:32;25.40;;;14.50;;
51883;SDS011;37915;53.254;6.598;2022-11-21T07:16:01;23.42;;;14.40;;
51883;SDS011;37915;53.254;6.598;2022-11-21T07:18:28;27.13;;;15.23;;
51883;SDS011;37915;53.254;6.598;2022-11-21T07:20:58;27.17;;;14.18;;
51883;SDS011;37915;53.254;6.598;2022-11-21T07:23:25;25.45;;;14.23;;
51883;SDS011;37915;53.254;6.598;2022-11-21T07:25:51;26.90;;;14.85;;
51883;SDS011;37915;53.254;6.598;2022-11-21T07:28:20;26.80;;;14.15;;
51883;SDS011;37915;53.254;6.598;2022-11-21T07:30:46;28.35;;;15.05;;
51883;SDS011;37915;53.254;6.598;2022-11-21T07:33:12;26.35;;;14.10;;
51883;SDS011;37915;53.254;6.598;2022-11-21T07:35:38;27.90;;;14.70;;
51883;SDS011;37915;53.254;6.598;2022-11-21T07:38:04;39.47;;;16.83;;
51883;SDS011;37915;53.254;6.598;2022-11-21T07:40:30;32.55;;;18.33;;
51883;SDS011;37915;53.254;6.598;2022-11-21T07:43:04;28.67;;;15.30;;
51883;SDS011;37915;53.254;6.598;2022-11-21T07:45:31;31.52;;;17.05;;
51883;SDS011;37915;53.254;6.598;2022-11-21T07:48:01;28.98;;;15.50;;
51883;SDS011;37915;53.254;6.598;2022-11-21T07:50:28;32.03;;;16.08;;
51883;SDS011;37915;53.254;6.598;2022-11-21T07:52:59;31.85;;;16.75;;
51883;SDS011;37915;53.254;6.598;2022-11-21T07:55:29;26.77;;;15.27;;
51883;SDS011;37915;53.254;6.598;2022-11-21T07:58:08;29.15;;;16.02;;
51883;SDS011;37915;53.254;6.598;2022-11-21T08:00:36;32.05;;;17.27;;
51883;SDS011;37915;53.254;6.598;2022-11-21T08:03:03;29.40;;;16.13;;
51883;SDS011;37915;53.254;6.598;2022-11-21T08:05:34;34.92;;;16.25;;
51883;SDS011;37915;53.254;6.598;2022-11-21T08:08:01;31.00;;;17.23;;
51883;SDS011;37915;53.254;6.598;2022-11-21T08:10:27;28.80;;;15.88;;
51883;SDS011;37915;53.254;6.598;2022-11-21T08:12:53;31.27;;;17.48;;
51883;SDS011;37915;53.254;6.598;2022-11-21T08:15:18;31.85;;;16.27;;
51883;SDS011;37915;53.254;6.598;2022-11-21T08:17:44;31.27;;;17.40;;
51883;SDS011;37915;53.254;6.598;2022-11-21T08:20:09;35.08;;;18.08;;
51883;SDS011;37915;53.254;6.598;2022-11-21T08:22:39;32.45;;;17.42;;
51883;SDS011;37915;53.254;6.598;2022-11-21T08:25:06;30.70;;;17.23;;
51883;SDS011;37915;53.254;6.598;2022-11-21T08:27:33;34.90;;;17.60;;
51883;SDS011;37915;53.254;6.598;2022-11-21T08:29:59;29.75;;;15.55;;
51883;SDS011;37915;53.254;6.598;2022-11-21T08:32:24;29.42;;;16.35;;
51883;SDS011;37915;53.254;6.598;2022-11-21T08:34:50;32.10;;;15.63;;
51883;SDS011;37915;53.254;6.598;2022-11-21T08:37:16;29.95;;;15.75;;
51883;SDS011;37915;53.254;6.598;2022-11-21T08:39:41;31.95;;;15.75;;
51883;SDS011;37915;53.254;6.598;2022-11-21T08:42:08;27.90;;;15.48;;
51883;SDS011;37915;53.254;6.598;2022-11-21T08:44:34;28.10;;;16.27;;
51883;SDS011;37915;53.254;6.598;2022-11-21T08:47:00;28.95;;;16.30;;
51883;SDS011;37915;53.254;6.598;2022-11-21T08:49:26;30.20;;;16.45;;
51883;SDS011;37915;53.254;6.598;2022-11-21T08:51:52;29.63;;;15.65;;
51883;SDS011;37915;53.254;6.598;2022-11-21T08:54:19;32.05;;;15.65;;
51883;SDS011;37915;53.254;6.598;2022-11-21T08:56:47;30.00;;;16.80;;
51883;SDS011;37915;53.254;6.598;2022-11-21T08:59:13;29.60;;;15.40;;
51883;SDS011;37915;53.254;6.598;2022-11-21T09:01:39;27.95;;;16.48;;
51883;SDS011;37915;53.254;6.598;2022-11-21T09:04:05;24.90;;;14.45;;
51883;SDS011;37915;53.254;6.598;2022-11-21T09:06:31;26.95;;;15.07;;
51883;SDS011;37915;53.254;6.598;2022-11-21T09:08:57;29.48;;;15.70;;
51883;SDS011;37915;53.254;6.598;2022-11-21T09:11:23;24.52;;;15.30;;
51883;SDS011;37915;53.254;6.598;2022-11-21T09:13:50;28.95;;;16.95;;
51883;SDS011;37915;53.254;6.598;2022-11-21T09:16:35;28.17;;;15.82;;
51883;SDS011;37915;53.254;6.598;2022-11-21T09:19:19;27.88;;;14.55;;
51883;SDS011;37915;53.254;6.598;2022-11-21T09:21:49;31.10;;;15.68;;
51883;SDS011;37915;53.254;6.598;2022-11-21T09:24:15;28.10;;;14.77;;
51883;SDS011;37915;53.254;6.598;2022-11-21T09:26:42;28.27;;;16.10;;
51883;SDS011;37915;53.254;6.598;2022-11-21T09:29:08;28.23;;;15.80;;
51883;SDS011;37915;53.254;6.598;2022-11-21T09:31:39;25.13;;;14.90;;
51883;SDS011;37915;53.254;6.598;2022-11-21T09:34:06;30.67;;;15.98;;
51883;SDS011;37915;53.254;6.598;2022-11-21T09:36:32;28.92;;;15.02;;
51883;SDS011;37915;53.254;6.598;2022-11-21T09:38:57;24.92;;;16.02;;
51883;SDS011;37915;53.254;6.598;2022-11-21T09:49:58;25.20;;;14.63;;
51883;SDS011;37915;53.254;6.598;2022-11-21T09:52:45;26.13;;;14.45;;
51883;SDS011;37915;53.254;6.598;2022-11-21T09:58:42;28.70;;;15.18;;
51883;SDS011;37915;53.254;6.598;2022-11-21T10:01:01;25.33;;;14.82;;
51883;SDS011;37915;53.254;6.598;2022-11-21T10:03:40;24.15;;;14.52;;
51883;SDS011;37915;53.254;6.598;2022-11-21T10:06:16;24.67;;;13.45;;
51883;SDS011;37915;53.254;6.598;2022-11-21T10:21:31;26.73;;;15.55;;
51883;SDS011;37915;53.254;6.598;2022-11-21T10:27:03;23.08;;;13.32;;
51883;SDS011;37915;53.254;6.598;2022-11-21T10:29:45;25.92;;;14.82;;
51883;SDS011;37915;53.254;6.598;2022-11-21T10:32:26;24.05;;;13.93;;
51883;SDS011;37915;53.254;6.598;2022-11-21T10:37:55;24.23;;;13.43;;
51883;SDS011;37915;53.254;6.598;2022-11-21T10:40:41;24.17;;;13.48;;
51883;SDS011;37915;53.254;6.598;2022-11-21T10:45:59;21.50;;;13.00;;
51883;SDS011;37915;53.254;6.598;2022-11-21T10:48:28;16.75;;;11.73;;
51883;SDS011;37915;53.254;6.598;2022-11-21T10:53:38;17.85;;;11.15;;
51883;SDS011;37915;53.254;6.598;2022-11-21T10:56:23;24.80;;;13.73;;
51883;SDS011;37915;53.254;6.598;2022-11-21T10:58:54;27.33;;;14.60;;
51883;SDS011;37915;53.254;6.598;2022-11-21T11:01:27;21.23;;;12.70;;
51883;SDS011;37915;53.254;6.598;2022-11-21T11:06:29;22.83;;;12.85;;
51883;SDS011;37915;53.254;6.598;2022-11-21T11:08:55;25.05;;;13.48;;
51883;SDS011;37915;53.254;6.598;2022-11-21T11:11:21;26.67;;;14.20;;
51883;SDS011;37915;53.254;6.598;2022-11-21T11:13:57;27.45;;;14.00;;
51883;SDS011;37915;53.254;6.598;2022-11-21T11:16:25;23.75;;;14.38;;
51883;SDS011;37915;53.254;6.598;2022-11-21T11:21:25;23.85;;;14.10;;
51883;SDS011;37915;53.254;6.598;2022-11-21T11:23:54;22.27;;;13.70;;
51883;SDS011;37915;53.254;6.598;2022-11-21T11:31:44;21.77;;;12.50;;
51883;SDS011;37915;53.254;6.598;2022-11-21T11:34:13;17.73;;;10.82;;
51883;SDS011;37915;53.254;6.598;2022-11-21T11:36:43;18.63;;;10.77;;
51883;SDS011;37915;53.254;6.598;2022-11-21T11:42:19;22.08;;;12.27;;
51883;SDS011;37915;53.254;6.598;2022-11-21T11:47:59;14.77;;;9.55;;
51883;SDS011;37915;53.254;6.598;2022-11-21T11:53:24;17.58;;;10.07;;
51883;SDS011;37915;53.254;6.598;2022-11-21T11:58:24;18.63;;;10.90;;
51883;SDS011;37915;53.254;6.598;2022-11-21T12:01:09;18.92;;;9.70;;
51883;SDS011;37915;53.254;6.598;2022-11-21T12:03:49;15.52;;;9.30;;
51883;SDS011;37915;53.254;6.598;2022-11-21T12:06:23;13.05;;;8.32;;
51883;SDS011;37915;53.254;6.598;2022-11-21T12:09:00;13.98;;;7.75;;
51883;SDS011;37915;53.254;6.598;2022-11-21T12:17:47;12.50;;;7.68;;
51883;SDS011;37915;53.254;6.598;2022-11-21T12:20:20;11.93;;;6.85;;
51883;SDS011;37915;53.254;6.598;2022-11-21T12:22:57;13.02;;;7.65;;
51883;SDS011;37915;53.254;6.598;2022-11-21T12:25:24;16.52;;;8.10;;
51883;SDS011;37915;53.254;6.598;2022-11-21T12:27:54;12.20;;;7.90;;
51883;SDS011;37915;53.254;6.598;2022-11-21T12:33:21;15.70;;;8.73;;
51883;SDS011;37915;53.254;6.598;2022-11-21T12:35:50;13.23;;;8.27;;
51883;SDS011;37915;53.254;6.598;2022-11-21T12:38:51;17.08;;;8.73;;
51883;SDS011;37915;53.254;6.598;2022-11-21T12:41:35;15.77;;;9.27;;
51883;SDS011;37915;53.254;6.598;2022-11-21T12:57:11;15.75;;;9.75;;
51883;SDS011;37915;53.254;6.598;2022-11-21T13:05:11;17.67;;;10.38;;
51883;SDS011;37915;53.254;6.598;2022-11-21T13:07:41;18.95;;;11.57;;
51883;SDS011;37915;53.254;6.598;2022-11-21T13:10:15;19.40;;;11.13;;
51883;SDS011;37915;53.254;6.598;2022-11-21T13:12:47;20.65;;;12.35;;
51883;SDS011;37915;53.254;6.598;2022-11-21T13:15:25;20.98;;;11.55;;
51883;SDS011;37915;53.254;6.598;2022-11-21T13:18:04;22.52;;;12.52;;
51883;SDS011;37915;53.254;6.598;2022-11-21T13:21:08;19.60;;;12.10;;
51883;SDS011;37915;53.254;6.598;2022-11-21T13:32:39;19.00;;;10.32;;
51883;SDS011;37915;53.254;6.598;2022-11-21T13:53:57;18.08;;;10.15;;
51883;SDS011;37915;53.254;6.598;2022-11-21T14:05:42;17.75;;;10.23;;
51883;SDS011;37915;53.254;6.598;2022-11-21T14:08:17;15.50;;;9.18;;
51883;SDS011;37915;53.254;6.598;2022-11-21T14:10:47;17.02;;;8.98;;
51883;SDS011;37915;53.254;6.598;2022-11-21T14:13:36;16.00;;;9.13;;
51883;SDS011;37915;53.254;6.598;2022-11-21T14:18:48;15.93;;;9.65;;
51883;SDS011;37915;53.254;6.598;2022-11-21T14:21:32;17.88;;;9.90;;
51883;SDS011;37915;53.254;6.598;2022-11-21T14:24:02;16.88;;;10.43;;
51883;SDS011;37915;53.254;6.598;2022-11-21T14:26:44;18.35;;;10.00;;
51883;SDS011;37915;53.254;6.598;2022-11-21T14:29:46;17.05;;;9.65;;
51883;SDS011;37915;53.254;6.598;2022-11-21T14:32:12;15.30;;;9.50;;
51883;SDS011;37915;53.254;6.598;2022-11-21T14:34:38;16.52;;;8.90;;
51883;SDS011;37915;53.254;6.598;2022-11-21T14:37:04;15.27;;;9.00;;
51883;SDS011;37915;53.254;6.598;2022-11-21T14:39:31;16.15;;;9.48;;
51883;SDS011;37915;53.254;6.598;2022-11-21T14:42:03;15.23;;;9.65;;
51883;SDS011;37915;53.254;6.598;2022-11-21T14:44:30;15.80;;;9.50;;
51883;SDS011;37915;53.254;6.598;2022-11-21T14:49:50;17.40;;;10.20;;
51883;SDS011;37915;53.254;6.598;2022-11-21T14:52:25;18.52;;;10.73;;
51883;SDS011;37915;53.254;6.598;2022-11-21T14:54:58;16.67;;;10.27;;
51883;SDS011;37915;53.254;6.598;2022-11-21T14:57:30;19.65;;;10.57;;
51883;SDS011;37915;53.254;6.598;2022-11-21T14:59:58;21.05;;;11.15;;
51883;SDS011;37915;53.254;6.598;2022-11-21T15:02:26;17.33;;;10.70;;
51883;SDS011;37915;53.254;6.598;2022-11-21T15:04:58;18.92;;;11.80;;
51883;SDS011;37915;53.254;6.598;2022-11-21T15:07:27;16.98;;;10.55;;
51883;SDS011;37915;53.254;6.598;2022-11-21T15:09:58;20.97;;;11.57;;
51883;SDS011;37915;53.254;6.598;2022-11-21T15:17:54;22.08;;;12.13;;
51883;SDS011;37915;53.254;6.598;2022-11-21T15:20:22;22.05;;;12.35;;
51883;SDS011;37915;53.254;6.598;2022-11-21T15:22:53;23.30;;;12.93;;
51883;SDS011;37915;53.254;6.598;2022-11-21T15:25:21;23.23;;;12.77;;
51883;SDS011;37915;53.254;6.598;2022-11-21T15:27:49;22.13;;;12.15;;
51883;SDS011;37915;53.254;6.598;2022-11-21T15:30:35;21.45;;;12.23;;
51883;SDS011;37915;53.254;6.598;2022-11-21T15:33:05;24.67;;;13.90;;
51883;SDS011;37915;53.254;6.598;2022-11-21T15:38:11;26.45;;;14.65;;
51883;SDS011;37915;53.254;6.598;2022-11-21T15:40:55;27.55;;;14.73;;
51883;SDS011;37915;53.254;6.598;2022-11-21T15:43:41;23.80;;;13.23;;
51883;SDS011;37915;53.254;6.598;2022-11-21T15:46:24;23.95;;;13.02;;
51883;SDS011;37915;53.254;6.598;2022-11-21T15:48:58;26.85;;;14.02;;
51883;SDS011;37915;53.254;6.598;2022-11-21T15:51:33;25.40;;;14.50;;
51883;SDS011;37915;53.254;6.598;2022-11-21T15:54:03;25.30;;;14.00;;
51883;SDS011;37915;53.254;6.598;2022-11-21T15:56:31;25.38;;;13.73;;
51883;SDS011;37915;53.254;6.598;2022-11-21T15:58:56;27.45;;;14.15;;
51883;SDS011;37915;53.254;6.598;2022-11-21T16:01:23;27.10;;;14.23;;
51883;SDS011;37915;53.254;6.598;2022-11-21T16:03:52;25.65;;;14.50;;
51883;SDS011;37915;53.254;6.598;2022-11-21T16:06:20;29.52;;;15.90;;
51883;SDS011;37915;53.254;6.598;2022-11-21T16:08:46;34.72;;;16.95;;
51883;SDS011;37915;53.254;6.598;2022-11-21T16:11:16;27.40;;;15.02;;
51883;SDS011;37915;53.254;6.598;2022-11-21T16:13:54;32.45;;;16.90;;
51883;SDS011;37915;53.254;6.598;2022-11-21T16:16:21;31.10;;;15.65;;
51883;SDS011;37915;53.254;6.598;2022-11-21T16:18:49;33.80;;;17.20;;
51883;SDS011;37915;53.254;6.598;2022-11-21T16:21:15;33.05;;;17.20;;
51883;SDS011;37915;53.254;6.598;2022-11-21T16:23:41;34.10;;;16.98;;
51883;SDS011;37915;53.254;6.598;2022-11-21T16:26:07;29.15;;;15.82;;
51883;SDS011;37915;53.254;6.598;2022-11-21T16:28:34;40.60;;;17.98;;
51883;SDS011;37915;53.254;6.598;2022-11-21T16:31:00;33.85;;;17.25;;
51883;SDS011;37915;53.254;6.598;2022-11-21T16:33:27;36.60;;;17.92;;
51883;SDS011;37915;53.254;6.598;2022-11-21T16:35:53;35.53;;;17.95;;
51883;SDS011;37915;53.254;6.598;2022-11-21T16:38:25;39.75;;;17.83;;
51883;SDS011;37915;53.254;6.598;2022-11-21T16:40:52;35.65;;;18.35;;
51883;SDS011;37915;53.254;6.598;2022-11-21T16:43:26;43.45;;;18.80;;
51883;SDS011;37915;53.254;6.598;2022-11-21T16:45:53;43.45;;;19.70;;
51883;SDS011;37915;53.254;6.598;2022-11-21T16:48:20;42.95;;;19.60;;
51883;SDS011;37915;53.254;6.598;2022-11-21T16:50:47;40.40;;;19.17;;
51883;SDS011;37915;53.254;6.598;2022-11-21T16:53:13;41.13;;;18.08;;
51883;SDS011;37915;53.254;6.598;2022-11-21T16:55:40;47.70;;;21.42;;
51883;SDS011;37915;53.254;6.598;2022-11-21T16:58:06;50.25;;;20.52;;
51883;SDS011;37915;53.254;6.598;2022-11-21T17:00:32;49.85;;;20.98;;